createdAt,value
2022-10-01T00:02:18.362Z,10.20
2022-10-01T00:04:46.960Z,10.20
2022-10-01T00:07:15.281Z,10.20
2022-10-01T00:09:43.196Z,10.20
2022-10-01T00:12:11.018Z,10.20
2022-10-01T00:14:39.386Z,10.20
2022-10-01T00:17:08.511Z,10.20
2022-10-01T00:19:36.343Z,10.20
2022-10-01T00:22:04.128Z,10.10
2022-10-01T00:24:31.983Z,10.10
2022-10-01T00:27:00.373Z,10.10
2022-10-01T00:29:28.133Z,10.10
2022-10-01T00:31:56.329Z,10.10
2022-10-01T00:34:26.786Z,10.20
2022-10-01T00:36:55.610Z,10.20
2022-10-01T00:39:23.913Z,10.10
2022-10-01T00:41:52.326Z,10.20
2022-10-01T00:44:32.884Z,10.20
2022-10-01T00:47:10.360Z,10.10
2022-10-01T00:49:41.015Z,10.20
2022-10-01T00:52:13.132Z,10.20
2022-10-01T00:54:45.591Z,10.20
2022-10-01T00:57:17.697Z,10.20
2022-10-01T00:59:46.588Z,10.20
2022-10-01T01:02:14.389Z,10.20
2022-10-01T01:04:44.712Z,10.20
2022-10-01T01:07:13.165Z,10.20
2022-10-01T01:09:45.633Z,10.20
2022-10-01T01:12:26.657Z,10.20
2022-10-01T01:15:02.831Z,10.10
2022-10-01T01:17:35.687Z,10.10
2022-10-01T01:20:24.516Z,10.10
2022-10-01T01:23:03.376Z,10.10
2022-10-01T01:25:36.876Z,10.00
2022-10-01T01:28:20.856Z,10.00
2022-10-01T01:30:52.413Z,10.00
2022-10-01T01:33:23.125Z,10.00
2022-10-01T01:35:54.097Z,10.00
2022-10-01T01:38:27.953Z,9.90
2022-10-01T01:40:59.166Z,9.90
2022-10-01T01:43:33.164Z,9.90
2022-10-01T01:46:03.444Z,9.80
2022-10-01T01:48:34.996Z,9.80
2022-10-01T01:51:10.345Z,9.80
2022-10-01T01:53:38.435Z,9.80
2022-10-01T01:56:06.925Z,9.70
2022-10-01T01:58:36.948Z,9.70
2022-10-01T02:01:05.035Z,9.70
2022-10-01T02:03:35.874Z,9.70
2022-10-01T02:06:14.053Z,9.70
2022-10-01T02:08:49.572Z,9.70
2022-10-01T02:11:24.859Z,9.70
2022-10-01T02:14:04.268Z,9.70
2022-10-01T02:16:38.022Z,9.70
2022-10-01T02:19:13.970Z,9.70
2022-10-01T02:21:45.237Z,9.60
2022-10-01T02:24:21.232Z,9.60
2022-10-01T02:26:51.733Z,9.60
2022-10-01T02:29:23.515Z,9.60
2022-10-01T02:31:55.609Z,9.60
2022-10-01T02:34:26.365Z,9.60
2022-10-01T02:36:55.280Z,9.60
2022-10-01T02:39:24.052Z,9.60
2022-10-01T02:41:54.887Z,9.60
2022-10-01T02:44:30.145Z,9.60
2022-10-01T02:47:03.174Z,9.60
2022-10-01T02:49:32.113Z,9.60
2022-10-01T02:52:06.828Z,9.60
2022-10-01T02:54:39.881Z,9.60
2022-10-01T02:57:27.292Z,9.60
2022-10-01T02:59:58.971Z,9.60
2022-10-01T03:02:27.809Z,9.60
2022-10-01T03:04:56.616Z,9.60
2022-10-01T03:07:24.597Z,9.60
2022-10-01T03:09:52.491Z,9.60
2022-10-01T03:12:20.268Z,9.60
2022-10-01T03:14:48.152Z,9.60
2022-10-01T03:17:17.634Z,9.60
2022-10-01T03:19:45.361Z,9.60
2022-10-01T03:22:18.046Z,9.60
2022-10-01T03:24:45.812Z,9.60
2022-10-01T03:27:13.543Z,9.60
2022-10-01T03:29:41.265Z,9.60
2022-10-01T03:32:08.980Z,9.60
2022-10-01T03:34:38.118Z,9.60
2022-10-01T03:37:05.940Z,9.60
2022-10-01T03:39:34.007Z,9.60
2022-10-01T03:42:01.976Z,9.60
2022-10-01T03:44:29.701Z,9.60
2022-10-01T03:46:57.413Z,9.60
2022-10-01T03:49:25.217Z,9.50
2022-10-01T03:51:54.260Z,9.50
2022-10-01T03:54:22.524Z,9.50
2022-10-01T03:56:50.563Z,9.50
2022-10-01T03:59:19.827Z,9.50
2022-10-01T04:01:47.627Z,9.50
2022-10-01T04:04:15.795Z,9.50
2022-10-01T04:06:43.541Z,9.50
2022-10-01T04:09:12.589Z,9.50
2022-10-01T04:11:40.414Z,9.50
2022-10-01T04:14:08.933Z,9.50
2022-10-01T04:16:36.955Z,9.50
2022-10-01T04:19:05.629Z,9.50
2022-10-01T04:21:33.582Z,9.50
2022-10-01T04:24:02.977Z,9.50
2022-10-01T04:26:32.092Z,9.50
2022-10-01T04:28:59.800Z,9.50
2022-10-01T04:31:27.885Z,9.50
2022-10-01T04:33:57.209Z,9.50
2022-10-01T04:36:26.181Z,9.50
2022-10-01T04:38:59.317Z,9.50
2022-10-01T04:41:31.541Z,9.50
2022-10-01T04:44:01.101Z,9.50
2022-10-01T04:46:29.423Z,9.50
2022-10-01T04:48:57.200Z,9.50
2022-10-01T04:51:24.958Z,9.50
2022-10-01T04:53:52.686Z,9.50
2022-10-01T04:56:20.404Z,9.50
2022-10-01T04:58:48.470Z,9.60
2022-10-01T05:01:17.589Z,9.60
2022-10-01T05:03:45.496Z,9.60
2022-10-01T05:06:13.180Z,9.60
2022-10-01T05:08:40.860Z,9.60
2022-10-01T05:11:08.569Z,9.60
2022-10-01T05:13:36.251Z,9.60
2022-10-01T05:16:04.070Z,9.70
2022-10-01T05:18:33.172Z,9.70
2022-10-01T05:21:05.211Z,9.70
2022-10-01T05:23:33.193Z,9.70
2022-10-01T05:26:01.228Z,9.70
2022-10-01T05:28:28.993Z,9.70
2022-10-01T05:30:59.315Z,9.70
2022-10-01T05:33:27.388Z,9.80
2022-10-01T05:35:56.986Z,9.80
2022-10-01T05:38:24.803Z,9.80
2022-10-01T05:40:52.548Z,9.80
2022-10-01T05:43:20.257Z,9.80
2022-10-01T05:45:48.043Z,9.80
2022-10-01T05:48:15.792Z,9.80
2022-10-01T05:50:44.153Z,9.80
2022-10-01T05:53:13.939Z,9.80
2022-10-01T05:55:41.745Z,9.80
2022-10-01T05:58:12.158Z,9.80
2022-10-01T06:00:41.349Z,9.80
2022-10-01T06:03:09.718Z,9.80
2022-10-01T06:05:38.388Z,9.80
2022-10-01T06:08:07.082Z,9.80
2022-10-01T06:10:36.793Z,9.90
2022-10-01T06:13:05.405Z,9.80
2022-10-01T06:15:35.172Z,9.90
2022-10-01T06:18:03.290Z,9.90
2022-10-01T06:20:31.677Z,9.80
2022-10-01T06:22:59.785Z,9.90
2022-10-01T06:25:30.649Z,9.90
2022-10-01T06:28:00.708Z,9.90
2022-10-01T06:30:31.557Z,9.90
2022-10-01T06:33:01.940Z,9.90
2022-10-01T06:35:29.708Z,9.90
2022-10-01T06:37:57.582Z,9.90
2022-10-01T06:40:25.380Z,9.90
2022-10-01T06:42:56.684Z,9.90
2022-10-01T06:45:26.253Z,9.90
2022-10-01T06:47:58.272Z,9.90
2022-10-01T06:50:26.403Z,9.90
2022-10-01T06:52:54.780Z,9.90
2022-10-01T06:55:25.205Z,10.00
2022-10-01T06:57:56.159Z,10.00
2022-10-01T07:00:24.217Z,10.00
2022-10-01T07:02:54.124Z,10.00
2022-10-01T07:05:21.854Z,10.00
2022-10-01T07:07:49.589Z,10.00
2022-10-01T07:10:19.922Z,10.00
2022-10-01T07:12:48.884Z,10.00
2022-10-01T07:15:18.066Z,10.10
2022-10-01T07:17:48.771Z,10.10
2022-10-01T07:20:19.145Z,10.10
2022-10-01T07:22:48.012Z,10.10
2022-10-01T07:25:16.545Z,10.10
2022-10-01T07:27:44.277Z,10.10
2022-10-01T07:30:12.647Z,10.10
2022-10-01T07:32:40.356Z,10.20
2022-10-01T07:35:08.973Z,10.20
2022-10-01T07:37:38.061Z,10.20
2022-10-01T07:40:07.604Z,10.20
2022-10-01T07:42:36.131Z,10.20
2022-10-01T07:45:06.531Z,10.30
2022-10-01T07:47:34.320Z,10.30
2022-10-01T07:50:02.020Z,10.30
2022-10-01T07:52:29.752Z,10.30
2022-10-01T07:54:58.818Z,10.30
2022-10-01T07:57:26.503Z,10.30
2022-10-01T07:59:56.088Z,10.30
2022-10-01T08:02:24.362Z,10.30
2022-10-01T08:05:09.434Z,10.40
2022-10-01T08:07:37.137Z,10.40
2022-10-01T08:10:07.068Z,10.40
2022-10-01T08:12:34.744Z,10.40
2022-10-01T08:15:03.144Z,10.50
2022-10-01T08:17:30.953Z,10.50
2022-10-01T08:19:58.635Z,10.60
2022-10-01T08:22:26.660Z,10.60
2022-10-01T08:24:54.522Z,10.60
2022-10-01T08:27:24.758Z,10.70
2022-10-01T08:29:52.535Z,10.70
2022-10-01T08:32:20.264Z,10.70
2022-10-01T08:34:47.937Z,10.70
2022-10-01T08:37:15.682Z,10.70
2022-10-01T08:39:43.430Z,10.80
2022-10-01T08:42:22.642Z,10.80
2022-10-01T08:44:53.055Z,10.80
2022-10-01T08:47:28.860Z,10.80
2022-10-01T08:50:00.865Z,10.80
2022-10-01T08:52:32.754Z,10.90
2022-10-01T08:55:04.188Z,10.90
2022-10-01T08:57:35.353Z,10.90
2022-10-01T09:00:08.723Z,10.90
2022-10-01T09:02:40.355Z,11.00
2022-10-01T09:05:21.130Z,11.00
2022-10-01T09:07:58.340Z,11.00
2022-10-01T09:10:44.009Z,11.10
2022-10-01T09:13:33.896Z,11.20
2022-10-01T09:16:13.052Z,11.30
2022-10-01T09:18:52.075Z,11.30
2022-10-01T09:21:24.004Z,11.40
2022-10-01T09:24:03.051Z,11.50
2022-10-01T09:26:30.844Z,11.50
2022-10-01T09:29:02.468Z,11.60
2022-10-01T09:31:38.577Z,11.60
2022-10-01T09:34:13.876Z,11.70
2022-10-01T09:36:48.048Z,11.60
2022-10-01T09:39:21.649Z,11.70
2022-10-01T09:41:49.383Z,11.70
2022-10-01T09:44:19.411Z,11.70
2022-10-01T09:46:49.061Z,11.80
2022-10-01T09:49:26.702Z,11.80
2022-10-01T09:52:01.668Z,11.80
2022-10-01T09:54:35.272Z,11.80
2022-10-01T09:57:10.109Z,11.80
2022-10-01T09:59:45.241Z,11.80
2022-10-01T10:02:23.425Z,11.80
2022-10-01T10:05:00.555Z,11.80
2022-10-01T10:07:29.152Z,11.70
2022-10-01T10:09:56.904Z,11.70
2022-10-01T10:12:29.404Z,11.80
2022-10-01T10:14:58.926Z,11.80
2022-10-01T10:17:28.391Z,11.80
2022-10-01T10:19:56.127Z,11.90
2022-10-01T10:22:26.327Z,11.90
2022-10-01T10:24:57.797Z,12.00
2022-10-01T10:27:28.384Z,12.10
2022-10-01T10:30:03.983Z,12.20
2022-10-01T10:32:33.488Z,12.20
2022-10-01T10:35:05.026Z,12.30
2022-10-01T10:37:37.691Z,12.30
2022-10-01T10:40:08.648Z,12.40
2022-10-01T10:42:38.749Z,12.50
2022-10-01T10:45:19.955Z,12.60
2022-10-01T10:47:51.936Z,12.80
2022-10-01T10:50:30.825Z,12.90
2022-10-01T10:52:59.301Z,12.90
2022-10-01T10:55:31.387Z,13.00
2022-10-01T10:58:11.129Z,13.10
2022-10-01T11:00:46.384Z,13.20
2022-10-01T11:03:17.926Z,13.40
2022-10-01T11:05:45.649Z,13.50
2022-10-01T11:08:20.414Z,13.50
2022-10-01T11:10:58.609Z,13.50
2022-10-01T11:13:46.017Z,13.50
2022-10-01T11:16:37.134Z,13.60
2022-10-01T11:19:23.417Z,13.70
2022-10-01T11:22:19.474Z,13.80
2022-10-01T11:25:01.914Z,13.90
2022-10-01T11:27:41.255Z,14.00
2022-10-01T11:30:13.734Z,14.10
2022-10-01T11:32:46.368Z,14.30
2022-10-01T11:35:35.310Z,14.30
2022-10-01T11:38:36.238Z,14.40
2022-10-01T11:41:16.063Z,14.50
2022-10-01T11:43:46.123Z,14.70
2022-10-01T11:46:19.856Z,14.90
2022-10-01T11:48:51.982Z,15.00
2022-10-01T11:51:27.863Z,15.00
2022-10-01T11:53:58.963Z,15.10
2022-10-01T11:56:48.365Z,15.10
2022-10-01T11:59:23.418Z,15.10
2022-10-01T12:01:57.980Z,15.00
2022-10-01T12:04:32.770Z,14.90
2022-10-01T12:07:06.292Z,14.90
2022-10-01T12:09:47.078Z,14.80
2022-10-01T12:12:22.322Z,15.00
2022-10-01T12:14:55.190Z,15.10
2022-10-01T12:17:28.238Z,15.20
2022-10-01T12:19:59.615Z,15.30
2022-10-01T12:22:31.668Z,15.30
2022-10-01T12:24:59.445Z,15.30
2022-10-01T12:27:42.170Z,15.30
2022-10-01T12:30:14.315Z,15.40
2022-10-01T12:33:06.614Z,15.40
2022-10-01T12:35:53.328Z,15.40
2022-10-01T12:38:37.930Z,15.40
2022-10-01T12:41:17.147Z,15.20
2022-10-01T12:44:03.212Z,15.10
2022-10-01T12:46:41.388Z,15.00
2022-10-01T12:49:22.298Z,15.00
2022-10-01T12:51:54.174Z,15.10
2022-10-01T12:54:53.016Z,15.20
2022-10-01T12:57:36.914Z,15.30
2022-10-01T13:00:11.893Z,15.40
2022-10-01T13:03:15.283Z,15.40
2022-10-01T13:05:51.147Z,15.50
2022-10-01T13:08:33.735Z,15.50
2022-10-01T13:11:07.934Z,15.60
2022-10-01T13:13:35.764Z,15.60
2022-10-01T13:16:11.671Z,15.60
2022-10-01T13:18:51.532Z,15.60
2022-10-01T13:21:28.518Z,15.70
2022-10-01T13:24:01.826Z,15.70
2022-10-01T13:26:36.405Z,15.70
2022-10-01T13:29:19.974Z,15.70
2022-10-01T13:31:57.688Z,15.80
2022-10-01T13:34:35.530Z,15.80
2022-10-01T13:37:14.085Z,15.80
2022-10-01T13:39:43.410Z,15.80
2022-10-01T13:42:22.312Z,15.80
2022-10-01T13:44:56.326Z,15.80
2022-10-01T13:47:25.605Z,15.80
2022-10-01T13:49:57.438Z,16.00
2022-10-01T13:52:25.425Z,15.90
2022-10-01T13:54:55.730Z,16.00
2022-10-01T13:57:32.305Z,16.00
2022-10-01T14:00:01.996Z,16.00
2022-10-01T14:02:33.336Z,16.10
2022-10-01T14:05:24.890Z,16.10
2022-10-01T14:07:59.815Z,16.10
2022-10-01T14:10:35.691Z,16.10
2022-10-01T14:13:23.603Z,16.10
2022-10-01T14:16:02.530Z,16.10
2022-10-01T14:18:34.607Z,16.00
2022-10-01T14:21:10.856Z,16.00
2022-10-01T14:23:47.624Z,15.90
2022-10-01T14:26:21.980Z,15.90
2022-10-01T14:29:04.318Z,15.90
2022-10-01T14:31:42.134Z,15.80
2022-10-01T14:34:44.682Z,15.80
2022-10-01T14:37:17.385Z,15.80
2022-10-01T14:39:45.472Z,15.90
2022-10-01T14:42:17.420Z,15.90
2022-10-01T14:44:47.880Z,16.00
2022-10-01T14:47:20.332Z,16.00
2022-10-01T14:49:48.660Z,16.00
2022-10-01T14:52:22.377Z,16.00
2022-10-01T14:54:53.828Z,16.00
2022-10-01T14:57:29.250Z,16.00
2022-10-01T15:00:00.376Z,16.00
2022-10-01T15:02:29.103Z,15.90
2022-10-01T15:04:58.137Z,15.90
2022-10-01T15:07:29.017Z,15.90
2022-10-01T15:10:07.150Z,15.90
2022-10-01T15:12:41.466Z,15.90
2022-10-01T15:15:19.764Z,15.90
2022-10-01T15:17:48.677Z,15.90
2022-10-01T15:20:18.280Z,15.80
2022-10-01T15:22:48.744Z,15.70
2022-10-01T15:25:22.758Z,15.70
2022-10-01T15:27:50.791Z,15.70
2022-10-01T15:30:20.014Z,15.60
2022-10-01T15:32:49.443Z,15.50
2022-10-01T15:35:21.412Z,15.40
2022-10-01T15:37:50.553Z,15.40
2022-10-01T15:40:29.189Z,15.30
2022-10-01T15:43:14.552Z,15.20
2022-10-01T15:45:43.908Z,15.10
2022-10-01T15:48:29.951Z,15.10
2022-10-01T15:51:02.597Z,15.00
2022-10-01T15:53:31.268Z,14.90
2022-10-01T15:56:01.226Z,14.80
2022-10-01T15:58:32.370Z,14.80
2022-10-01T16:01:04.823Z,14.70
2022-10-01T16:03:36.005Z,14.70
2022-10-01T16:06:06.501Z,14.60
2022-10-01T16:08:40.351Z,14.60
2022-10-01T16:11:20.157Z,14.60
2022-10-01T16:13:49.777Z,14.60
2022-10-01T16:16:27.673Z,14.60
2022-10-01T16:18:58.955Z,14.60
2022-10-01T16:21:27.368Z,14.50
2022-10-01T16:23:56.488Z,14.50
2022-10-01T16:26:38.100Z,14.40
2022-10-01T16:29:22.558Z,14.30
2022-10-01T16:31:51.979Z,14.30
2022-10-01T16:34:21.923Z,14.20
2022-10-01T16:36:50.164Z,14.20
2022-10-01T16:39:17.972Z,14.10
2022-10-01T16:42:01.468Z,14.10
2022-10-01T16:44:39.807Z,14.00
2022-10-01T16:47:12.144Z,14.00
2022-10-01T16:49:39.840Z,14.00
2022-10-01T16:52:08.225Z,13.90
2022-10-01T16:54:35.887Z,13.80
2022-10-01T16:57:03.564Z,13.80
2022-10-01T16:59:33.680Z,13.70
2022-10-01T17:02:02.114Z,13.50
2022-10-01T17:04:34.060Z,13.50
2022-10-01T17:07:02.275Z,13.40
2022-10-01T17:09:29.972Z,13.40
2022-10-01T17:11:58.864Z,13.30
2022-10-01T17:14:27.640Z,13.30
2022-10-01T17:16:55.391Z,13.20
2022-10-01T17:19:24.284Z,13.20
2022-10-01T17:21:53.312Z,13.20
2022-10-01T17:24:21.005Z,13.20
2022-10-01T17:26:48.729Z,13.10
2022-10-01T17:29:16.532Z,13.10
2022-10-01T17:31:47.679Z,13.00
2022-10-01T17:34:15.433Z,13.00
2022-10-01T17:36:43.136Z,12.90
2022-10-01T17:39:12.217Z,12.90
2022-10-01T17:41:39.922Z,12.90
2022-10-01T17:44:07.603Z,12.90
2022-10-01T17:46:35.543Z,12.80
2022-10-01T17:49:03.472Z,12.80
2022-10-01T17:51:31.201Z,12.80
2022-10-01T17:53:59.688Z,12.80
2022-10-01T17:56:31.454Z,12.70
2022-10-01T17:58:59.357Z,12.70
2022-10-01T18:01:27.085Z,12.70
2022-10-01T18:03:56.216Z,12.60
2022-10-01T18:06:24.749Z,12.50
2022-10-01T18:08:56.672Z,12.50
2022-10-01T18:11:26.175Z,12.50
2022-10-01T18:13:55.321Z,12.50
2022-10-01T18:16:23.275Z,12.40
2022-10-01T18:21:45.140Z,12.30
2022-10-01T18:24:12.874Z,12.30
2022-10-01T18:26:40.575Z,12.30
2022-10-01T18:29:10.780Z,12.30
2022-10-01T18:31:40.467Z,12.30
2022-10-01T18:34:18.625Z,12.20
2022-10-01T18:36:54.589Z,12.20
2022-10-01T18:39:28.969Z,12.20
2022-10-01T18:41:57.948Z,12.10
2022-10-01T18:44:27.300Z,12.10
2022-10-01T18:47:12.242Z,12.00
2022-10-01T18:49:55.456Z,12.00
2022-10-01T18:52:33.832Z,12.00
2022-10-01T18:55:30.382Z,11.90
2022-10-01T18:58:11.159Z,11.90
2022-10-01T19:00:46.311Z,11.80
2022-10-01T19:03:39.356Z,11.80
2022-10-01T19:06:35.402Z,11.80
2022-10-01T19:09:16.007Z,11.70
2022-10-01T19:11:51.987Z,11.60
2022-10-01T19:14:39.857Z,11.60
2022-10-01T19:17:20.845Z,11.50
2022-10-01T19:20:02.838Z,11.50
2022-10-01T19:22:42.409Z,11.50
2022-10-01T19:25:19.400Z,11.40
2022-10-01T19:28:03.753Z,11.40
2022-10-01T19:30:38.729Z,11.30
2022-10-01T19:33:11.938Z,11.30
2022-10-01T19:35:42.678Z,11.30
2022-10-01T19:38:16.667Z,11.20
2022-10-01T19:40:49.716Z,11.20
2022-10-01T19:43:23.333Z,11.20
2022-10-01T19:45:55.888Z,11.10
2022-10-01T19:48:30.791Z,11.10
2022-10-01T19:51:07.309Z,11.10
2022-10-01T19:53:37.993Z,11.00
2022-10-01T19:56:07.240Z,11.00
2022-10-01T19:58:34.977Z,10.90
2022-10-01T20:01:04.085Z,10.90
2022-10-01T20:03:38.242Z,10.90
2022-10-01T20:06:09.997Z,10.90
2022-10-01T20:08:43.079Z,10.80
2022-10-01T20:11:14.525Z,10.80
2022-10-01T20:13:53.430Z,10.80
2022-10-01T20:16:27.913Z,10.80
2022-10-01T20:19:04.894Z,10.80
2022-10-01T20:21:51.192Z,10.70
2022-10-01T20:24:42.448Z,10.70
2022-10-01T20:27:21.939Z,10.70
2022-10-01T20:29:58.145Z,10.60
2022-10-01T20:32:32.022Z,10.60
2022-10-01T20:35:12.992Z,10.60
2022-10-01T20:37:54.693Z,10.50
2022-10-01T20:40:26.005Z,10.50
2022-10-01T20:43:00.048Z,10.50
2022-10-01T20:45:29.762Z,10.50
2022-10-01T20:48:00.111Z,10.50
2022-10-01T20:50:34.827Z,10.50
2022-10-01T20:53:13.753Z,10.40
2022-10-01T20:55:46.720Z,10.40
2022-10-01T20:58:19.190Z,10.40
2022-10-01T21:00:48.677Z,10.30
2022-10-01T21:03:22.695Z,10.30
2022-10-01T21:05:55.071Z,10.30
2022-10-01T21:08:43.449Z,10.30
2022-10-01T21:11:17.061Z,10.20
2022-10-01T21:13:51.886Z,10.20
2022-10-01T21:16:44.641Z,10.20
2022-10-01T21:19:25.542Z,10.10
2022-10-01T21:22:04.669Z,10.10
2022-10-01T21:24:45.063Z,10.10
2022-10-01T21:27:25.877Z,10.10
2022-10-01T21:30:05.101Z,10.00
2022-10-01T21:32:48.649Z,10.00
2022-10-01T21:35:24.545Z,10.00
2022-10-01T21:38:01.944Z,9.90
2022-10-01T21:40:38.612Z,9.90
2022-10-01T21:43:16.114Z,9.80
2022-10-01T21:45:54.750Z,9.80
2022-10-01T21:48:33.816Z,9.80
2022-10-01T21:51:08.236Z,9.70
2022-10-01T21:54:20.060Z,9.70
2022-10-01T21:56:58.996Z,9.70
2022-10-01T21:59:47.847Z,9.60
2022-10-01T22:02:27.138Z,9.60
2022-10-01T22:05:03.232Z,9.60
2022-10-01T22:07:35.257Z,9.60
2022-10-01T22:10:11.449Z,9.60
2022-10-01T22:12:41.962Z,9.50
2022-10-01T22:15:21.197Z,9.50
2022-10-01T22:17:50.823Z,9.50
2022-10-01T22:20:20.772Z,9.50
2022-10-01T22:22:51.227Z,9.50
2022-10-01T22:25:20.988Z,9.50
2022-10-01T22:27:52.015Z,9.40
2022-10-01T22:30:22.328Z,9.40
2022-10-01T22:32:57.438Z,9.40
2022-10-01T22:35:29.201Z,9.40
2022-10-01T22:38:01.040Z,9.40
2022-10-01T22:40:33.753Z,9.30
2022-10-01T22:43:07.361Z,9.30
2022-10-01T22:45:52.734Z,9.30
2022-10-01T22:48:33.584Z,9.30
2022-10-01T22:51:13.383Z,9.20
2022-10-01T22:53:52.981Z,9.30
2022-10-01T22:56:27.506Z,9.20
2022-10-01T22:59:07.635Z,9.20
2022-10-01T23:01:44.853Z,9.20
2022-10-01T23:04:29.327Z,9.20
2022-10-01T23:07:09.719Z,9.20
2022-10-01T23:09:44.296Z,9.20
2022-10-01T23:12:21.256Z,9.20
2022-10-01T23:15:12.263Z,9.20
2022-10-01T23:17:45.423Z,9.20
2022-10-01T23:20:22.404Z,9.20
2022-10-01T23:23:12.327Z,9.30
2022-10-01T23:25:53.229Z,9.30
2022-10-01T23:28:31.369Z,9.30
2022-10-01T23:31:07.801Z,9.30
2022-10-01T23:33:50.448Z,9.40
2022-10-01T23:36:31.295Z,9.40
2022-10-01T23:39:20.060Z,9.40
2022-10-01T23:41:55.058Z,9.40
2022-10-01T23:44:33.935Z,9.40
2022-10-01T23:47:06.777Z,9.40
2022-10-01T23:49:37.941Z,9.50
2022-10-01T23:52:14.340Z,9.50
2022-10-01T23:54:48.455Z,9.50
2022-10-01T23:57:20.997Z,9.50
2022-10-01T23:59:58.505Z,9.50
